createdAt,value
2018-02-11T00:00:56.863Z,99.90
2018-02-11T00:03:24.715Z,99.90
2018-02-11T00:05:53.140Z,99.90
2018-02-11T00:08:20.850Z,99.90
2018-02-11T00:10:49.462Z,99.90
2018-02-11T00:13:17.254Z,99.90
2018-02-11T00:15:45.115Z,99.90
2018-02-11T00:18:12.915Z,99.90
2018-02-11T00:20:41.442Z,99.90
2018-02-11T00:23:10.270Z,99.90
2018-02-11T00:25:38.378Z,99.90
2018-02-11T00:28:06.104Z,99.90
2018-02-11T00:30:33.870Z,99.90
2018-02-11T00:33:01.664Z,99.90
2018-02-11T00:35:30.242Z,99.90
2018-02-11T00:38:04.399Z,99.90
2018-02-11T00:40:32.240Z,99.90
2018-02-11T00:43:00.151Z,99.90
2018-02-11T00:45:28.103Z,99.90
2018-02-11T00:47:55.981Z,99.90
2018-02-11T00:50:23.836Z,99.90
2018-02-11T00:52:51.677Z,99.90
2018-02-11T00:55:19.547Z,99.90
2018-02-11T00:57:47.416Z,99.90
2018-02-11T01:00:15.275Z,99.90
2018-02-11T01:02:43.120Z,99.90
2018-02-11T01:05:11.696Z,99.90
2018-02-11T01:07:39.618Z,99.90
2018-02-11T01:10:07.418Z,99.90
2018-02-11T01:12:35.387Z,99.90
2018-02-11T01:15:03.264Z,99.70
2018-02-11T01:17:31.112Z,99.80
2018-02-11T01:19:59.028Z,99.90
2018-02-11T01:22:26.896Z,99.90
2018-02-11T01:24:54.659Z,99.90
2018-02-11T01:27:22.505Z,99.90
2018-02-11T01:29:51.155Z,99.70
2018-02-11T01:32:18.940Z,99.70
2018-02-11T01:34:46.750Z,99.70
2018-02-11T01:37:14.757Z,99.80
2018-02-11T01:39:42.727Z,99.70
2018-02-11T01:42:10.593Z,99.60
2018-02-11T01:44:38.562Z,99.60
2018-02-11T01:47:06.540Z,99.70
2018-02-11T01:49:34.325Z,99.70
2018-02-11T01:52:02.187Z,99.80
2018-02-11T01:54:30.030Z,99.90
2018-02-11T01:56:57.819Z,99.90
2018-02-11T01:59:25.658Z,99.90
2018-02-11T02:01:53.481Z,99.80
2018-02-11T02:04:21.254Z,99.60
2018-02-11T02:06:49.186Z,99.40
2018-02-11T02:09:17.028Z,99.20
2018-02-11T02:11:44.898Z,99.10
2018-02-11T02:14:12.756Z,99.00
2018-02-11T02:16:40.637Z,99.00
2018-02-11T02:19:08.584Z,99.00
2018-02-11T02:21:36.403Z,98.80
2018-02-11T02:24:04.953Z,98.80
2018-02-11T02:26:32.941Z,98.80
2018-02-11T02:29:00.814Z,98.80
2018-02-11T02:31:29.418Z,99.00
2018-02-11T02:33:57.346Z,99.00
2018-02-11T02:36:25.191Z,99.00
2018-02-11T02:38:53.045Z,99.00
2018-02-11T02:41:20.891Z,98.90
2018-02-11T02:43:48.803Z,98.80
2018-02-11T02:46:16.622Z,98.80
2018-02-11T02:48:44.393Z,98.80
2018-02-11T02:51:12.210Z,98.70
2018-02-11T02:53:40.064Z,98.70
2018-02-11T02:56:07.857Z,98.40
2018-02-11T02:58:36.532Z,98.30
2018-02-11T03:01:04.345Z,98.20
2018-02-11T03:03:32.140Z,97.90
2018-02-11T03:06:00.002Z,97.90
2018-02-11T03:08:27.785Z,98.30
2018-02-11T03:10:55.599Z,98.70
2018-02-11T03:13:23.512Z,98.90
2018-02-11T03:15:51.332Z,99.20
2018-02-11T03:18:19.193Z,99.40
2018-02-11T03:20:47.782Z,99.20
2018-02-11T03:23:15.610Z,99.20
2018-02-11T03:25:43.472Z,99.10
2018-02-11T03:28:11.340Z,98.60
2018-02-11T03:30:39.321Z,98.30
2018-02-11T03:33:07.105Z,98.00
2018-02-11T03:35:35.832Z,97.80
2018-02-11T03:38:03.612Z,97.80
2018-02-11T03:40:31.468Z,97.70
2018-02-11T03:42:59.351Z,97.40
2018-02-11T03:45:27.172Z,97.50
2018-02-11T03:47:55.056Z,97.60
2018-02-11T03:50:22.934Z,97.40
2018-02-11T03:52:50.720Z,97.20
2018-02-11T03:55:18.512Z,97.10
2018-02-11T03:57:47.152Z,97.30
2018-02-11T04:00:15.000Z,97.30
2018-02-11T04:02:42.857Z,97.20
2018-02-11T04:05:10.721Z,97.10
2018-02-11T04:07:38.576Z,96.90
2018-02-11T04:10:07.152Z,96.90
2018-02-11T04:12:35.838Z,97.00
2018-02-11T04:15:04.477Z,97.10
2018-02-11T04:17:32.380Z,97.10
2018-02-11T04:20:00.984Z,97.10
2018-02-11T04:22:28.845Z,97.10
2018-02-11T04:24:57.464Z,96.30
2018-02-11T04:27:25.338Z,96.30
2018-02-11T04:29:53.124Z,96.50
2018-02-11T04:32:20.938Z,96.30
2018-02-11T04:34:48.850Z,96.40
2018-02-11T04:37:16.727Z,96.60
2018-02-11T04:39:44.521Z,97.00
2018-02-11T04:42:13.180Z,97.10
2018-02-11T04:44:41.096Z,97.10
2018-02-11T04:47:08.919Z,97.20
2018-02-11T04:49:36.745Z,97.30
2018-02-11T04:52:04.556Z,97.20
2018-02-11T04:54:32.400Z,97.20
2018-02-11T04:57:00.279Z,97.10
2018-02-11T04:59:28.108Z,97.20
2018-02-11T05:01:55.953Z,97.50
2018-02-11T05:04:23.797Z,97.30
2018-02-11T05:06:52.377Z,97.70
2018-02-11T05:09:20.217Z,97.70
2018-02-11T05:11:48.110Z,98.10
2018-02-11T05:14:15.953Z,98.00
2018-02-11T05:16:43.743Z,98.10
2018-02-11T05:19:12.336Z,97.90
2018-02-11T05:21:40.891Z,97.90
2018-02-11T05:24:08.671Z,97.90
2018-02-11T05:26:36.604Z,98.00
2018-02-11T05:29:04.424Z,98.20
2018-02-11T05:31:32.276Z,98.10
2018-02-11T05:34:00.922Z,98.40
2018-02-11T05:36:28.801Z,98.30
2018-02-11T05:38:56.983Z,98.40
2018-02-11T05:41:25.873Z,98.20
2018-02-11T05:43:53.732Z,98.20
2018-02-11T05:46:21.815Z,97.90
2018-02-11T05:48:49.672Z,97.70
2018-02-11T05:51:17.584Z,97.30
2018-02-11T05:53:46.160Z,97.50
2018-02-11T05:56:14.826Z,97.20
2018-02-11T05:58:42.700Z,97.20
2018-02-11T06:01:10.579Z,97.30
2018-02-11T06:03:39.196Z,96.90
2018-02-11T06:06:07.037Z,96.90
2018-02-11T06:08:34.862Z,96.50
2018-02-11T06:11:02.724Z,96.20
2018-02-11T06:13:30.509Z,96.20
2018-02-11T06:15:58.531Z,96.00
2018-02-11T06:18:26.960Z,95.60
2018-02-11T06:20:54.726Z,95.50
2018-02-11T06:23:22.595Z,95.70
2018-02-11T06:25:51.321Z,95.50
2018-02-11T06:28:19.106Z,95.70
2018-02-11T06:30:47.602Z,95.90
2018-02-11T06:33:15.492Z,96.10
2018-02-11T06:35:43.340Z,96.20
2018-02-11T06:38:11.235Z,96.30
2018-02-11T06:40:39.868Z,96.20
2018-02-11T06:43:07.698Z,96.20
2018-02-11T06:45:36.279Z,96.10
2018-02-11T06:48:04.250Z,96.10
2018-02-11T06:50:32.843Z,95.50
2018-02-11T06:53:00.692Z,95.50
2018-02-11T06:55:29.445Z,95.30
2018-02-11T06:57:57.414Z,95.20
2018-02-11T07:00:25.486Z,95.40
2018-02-11T07:02:53.652Z,95.50
2018-02-11T07:05:21.862Z,95.70
2018-02-11T07:07:50.583Z,96.10
2018-02-11T07:10:18.579Z,96.10
2018-02-11T07:12:46.458Z,96.30
2018-02-11T07:15:14.327Z,96.20
2018-02-11T07:17:42.614Z,96.30
2018-02-11T07:20:10.426Z,96.20
2018-02-11T07:22:38.305Z,96.30
2018-02-11T07:25:06.307Z,96.10
2018-02-11T07:27:34.381Z,96.10
2018-02-11T07:30:02.244Z,96.00
2018-02-11T07:32:30.215Z,95.90
2018-02-11T07:34:58.084Z,95.90
2018-02-11T07:37:26.129Z,96.00
2018-02-11T07:39:54.223Z,95.90
2018-02-11T07:42:22.323Z,95.40
2018-02-11T07:44:51.089Z,95.20
2018-02-11T07:47:19.724Z,95.30
2018-02-11T07:49:47.572Z,95.30
2018-02-11T07:52:16.119Z,95.30
2018-02-11T07:54:44.190Z,95.30
2018-02-11T07:57:12.009Z,95.20
2018-02-11T07:59:39.808Z,95.10
2018-02-11T08:02:07.699Z,95.00
2018-02-11T08:04:35.515Z,95.20
2018-02-11T08:07:03.352Z,95.20
2018-02-11T08:09:31.948Z,94.70
2018-02-11T08:12:00.547Z,94.00
2018-02-11T08:14:28.349Z,94.00
2018-02-11T08:16:56.236Z,93.40
2018-02-11T08:19:24.086Z,92.80
2018-02-11T08:21:51.948Z,92.10
2018-02-11T08:24:19.793Z,91.80
2018-02-11T08:26:47.844Z,91.80
2018-02-11T08:29:15.715Z,92.10
2018-02-11T08:31:43.612Z,92.30
2018-02-11T08:34:11.504Z,92.00
2018-02-11T08:36:39.417Z,91.80
2018-02-11T08:39:07.637Z,91.30
2018-02-11T08:41:35.607Z,91.00
2018-02-11T08:44:03.686Z,90.30
2018-02-11T08:46:31.749Z,90.40
2018-02-11T08:48:59.923Z,90.30
2018-02-11T08:51:27.791Z,90.40
2018-02-11T08:53:56.452Z,90.40
2018-02-11T08:56:24.445Z,90.70
2018-02-11T08:58:52.628Z,90.30
2018-02-11T09:01:20.556Z,89.60
2018-02-11T09:03:48.632Z,88.90
2018-02-11T09:06:16.645Z,86.90
2018-02-11T09:08:44.600Z,86.20
2018-02-11T09:11:12.466Z,85.40
2018-02-11T09:13:40.537Z,88.50
2018-02-11T09:16:08.507Z,86.30
2018-02-11T09:18:36.456Z,85.80
2018-02-11T09:21:04.446Z,82.90
2018-02-11T09:23:32.620Z,83.80
2018-02-11T09:26:00.588Z,85.10
2018-02-11T09:28:28.455Z,83.60
2018-02-11T09:30:56.713Z,82.80
2018-02-11T09:33:24.704Z,83.60
2018-02-11T09:35:52.567Z,81.50
2018-02-11T09:38:20.875Z,79.50
2018-02-11T09:40:49.736Z,74.50
2018-02-11T09:43:17.709Z,74.50
2018-02-11T09:45:46.005Z,72.10
2018-02-11T09:48:13.951Z,70.40
2018-02-11T09:50:42.129Z,68.20
2018-02-11T09:53:10.094Z,67.10
2018-02-11T09:55:38.065Z,65.50
2018-02-11T09:58:06.033Z,63.70
2018-02-11T10:00:34.000Z,62.50
2018-02-11T10:03:02.034Z,60.80
2018-02-11T10:05:30.042Z,60.00
2018-02-11T10:07:58.125Z,59.90
2018-02-11T10:10:26.082Z,59.60
2018-02-11T10:12:53.950Z,59.20
2018-02-11T10:15:22.021Z,58.90
2018-02-11T10:17:50.156Z,58.70
2018-02-11T10:20:18.062Z,59.20
2018-02-11T10:22:46.140Z,60.30
2018-02-11T10:25:14.107Z,60.80
2018-02-11T10:27:42.511Z,60.70
2018-02-11T10:30:11.440Z,59.40
2018-02-11T10:32:39.455Z,59.30
2018-02-11T10:35:07.628Z,59.00
2018-02-11T10:37:35.586Z,58.50
2018-02-11T10:40:03.555Z,58.50
2018-02-11T10:42:31.542Z,57.70
2018-02-11T10:44:59.865Z,57.60
2018-02-11T10:47:27.821Z,57.40
2018-02-11T10:49:56.428Z,54.60
2018-02-11T10:52:24.373Z,54.60
2018-02-11T10:54:52.265Z,53.50
2018-02-11T10:57:20.201Z,53.60
2018-02-11T10:59:48.909Z,52.10
2018-02-11T11:02:16.700Z,52.10
2018-02-11T11:04:44.604Z,52.50
2018-02-11T11:07:12.465Z,52.50
2018-02-11T11:09:40.299Z,51.70
2018-02-11T11:12:08.096Z,52.00
2018-02-11T11:14:36.057Z,51.60
2018-02-11T11:17:03.881Z,50.70
2018-02-11T11:19:31.719Z,50.40
2018-02-11T11:22:00.335Z,49.50
2018-02-11T11:24:28.181Z,49.40
2018-02-11T11:26:56.112Z,49.20
2018-02-11T11:29:24.075Z,48.80
2018-02-11T11:31:51.992Z,48.90
2018-02-11T11:34:19.853Z,48.80
2018-02-11T11:36:47.780Z,48.60
2018-02-11T11:39:15.693Z,49.50
2018-02-11T11:41:43.490Z,47.70
2018-02-11T11:44:11.429Z,46.70
2018-02-11T11:46:39.525Z,46.80
2018-02-11T11:49:07.415Z,44.90
2018-02-11T11:51:35.352Z,44.20
2018-02-11T11:54:03.253Z,43.60
2018-02-11T11:56:31.268Z,43.70
2018-02-11T11:58:59.195Z,43.80
2018-02-11T12:01:27.361Z,44.10
2018-02-11T12:03:55.508Z,44.00
2018-02-11T12:06:23.461Z,43.50
2018-02-11T12:08:51.638Z,42.60
2018-02-11T12:11:19.489Z,42.70
2018-02-11T12:13:48.447Z,44.00
2018-02-11T12:16:16.508Z,43.40
2018-02-11T12:18:44.600Z,43.80
2018-02-11T12:21:12.502Z,44.70
2018-02-11T12:23:40.415Z,43.00
2018-02-11T12:26:08.345Z,43.00
2018-02-11T12:28:36.323Z,43.60
2018-02-11T12:31:04.929Z,41.80
2018-02-11T12:33:32.907Z,41.30
2018-02-11T12:36:00.878Z,41.50
2018-02-11T12:38:28.859Z,40.80
2018-02-11T12:40:56.813Z,41.10
2018-02-11T12:43:24.889Z,41.30
2018-02-11T12:45:53.240Z,41.40
2018-02-11T12:48:21.237Z,41.10
2018-02-11T12:50:49.249Z,41.30
2018-02-11T12:53:18.006Z,41.20
2018-02-11T12:55:46.172Z,41.20
2018-02-11T12:58:14.326Z,41.20
2018-02-11T13:00:42.211Z,41.30
2018-02-11T13:03:10.130Z,41.10
2018-02-11T13:05:38.074Z,41.10
2018-02-11T13:08:06.081Z,40.90
2018-02-11T13:10:34.086Z,41.00
2018-02-11T13:13:02.262Z,40.90
2018-02-11T13:15:30.296Z,41.10
2018-02-11T13:17:58.181Z,41.60
2018-02-11T13:20:26.330Z,41.30
2018-02-11T13:22:55.466Z,42.00
2018-02-11T13:25:23.333Z,41.70
2018-02-11T13:27:51.925Z,40.70
2018-02-11T13:30:19.888Z,40.60
2018-02-11T13:32:47.757Z,40.70
2018-02-11T13:35:15.732Z,40.70
2018-02-11T13:37:43.812Z,40.70
2018-02-11T13:40:12.185Z,40.30
2018-02-11T13:42:41.284Z,40.30
2018-02-11T13:45:09.132Z,40.30
2018-02-11T13:47:37.185Z,39.70
2018-02-11T13:50:05.480Z,40.10
2018-02-11T13:52:33.734Z,39.90
2018-02-11T13:55:02.447Z,39.40
2018-02-11T13:57:30.524Z,39.30
2018-02-11T13:59:58.591Z,40.00
2018-02-11T14:02:26.661Z,40.20
2018-02-11T14:04:54.631Z,40.20
2018-02-11T14:07:22.624Z,39.80
2018-02-11T14:09:51.449Z,40.00
2018-02-11T14:12:22.783Z,39.90
2018-02-11T14:14:50.704Z,40.30
2018-02-11T14:17:18.523Z,40.10
2018-02-11T14:19:46.568Z,39.90
2018-02-11T14:22:14.458Z,39.50
2018-02-11T14:24:43.019Z,35.30
2018-02-11T14:27:11.783Z,32.20
2018-02-11T14:29:39.869Z,32.10
2018-02-11T14:32:07.823Z,30.50
2018-02-11T14:34:36.053Z,30.10
2018-02-11T14:37:03.879Z,30.40
2018-02-11T14:39:31.752Z,32.30
2018-02-11T14:41:59.609Z,31.60
2018-02-11T14:44:27.402Z,30.00
2018-02-11T14:46:56.149Z,28.10
2018-02-11T14:49:24.323Z,28.10
2018-02-11T14:51:52.395Z,28.20
2018-02-11T14:54:20.264Z,28.40
2018-02-11T14:56:48.229Z,29.70
2018-02-11T14:59:16.098Z,31.50
2018-02-11T15:01:44.300Z,33.40
2018-02-11T15:04:13.171Z,36.50
2018-02-11T15:06:41.134Z,36.50
2018-02-11T15:09:09.102Z,37.80
2018-02-11T15:11:37.388Z,39.90
2018-02-11T15:14:05.462Z,42.00
2018-02-11T15:16:33.538Z,42.70
2018-02-11T15:19:01.490Z,43.40
2018-02-11T15:21:29.459Z,44.60
2018-02-11T15:23:57.735Z,45.80
2018-02-11T15:26:26.120Z,46.40
2018-02-11T15:28:53.936Z,47.30
2018-02-11T15:31:21.952Z,48.20
2018-02-11T15:33:49.870Z,48.90
2018-02-11T15:36:17.788Z,49.60
2018-02-11T15:38:45.681Z,50.30
2018-02-11T15:41:13.931Z,51.00
2018-02-11T15:43:42.023Z,51.60
2018-02-11T15:46:11.273Z,52.20
2018-02-11T15:48:39.338Z,52.20
2018-02-11T15:51:07.243Z,52.80
2018-02-11T15:53:35.108Z,53.40
2018-02-11T15:56:03.179Z,54.20
2018-02-11T15:58:31.251Z,54.60
2018-02-11T16:00:59.225Z,55.30
2018-02-11T16:03:27.488Z,55.80
2018-02-11T16:05:55.351Z,55.90
2018-02-11T16:08:23.960Z,56.80
2018-02-11T16:10:51.886Z,56.70
2018-02-11T16:13:19.975Z,57.20
2018-02-11T16:15:48.065Z,57.90
2018-02-11T16:18:16.032Z,58.30
2018-02-11T16:20:43.956Z,58.80
2018-02-11T16:23:11.867Z,59.50
2018-02-11T16:25:39.646Z,59.80
2018-02-11T16:28:07.516Z,60.70
2018-02-11T16:30:35.564Z,61.50
2018-02-11T16:33:03.439Z,62.10
2018-02-11T16:35:31.521Z,62.70
2018-02-11T16:37:59.677Z,63.30
2018-02-11T16:40:27.519Z,64.10
2018-02-11T16:42:55.433Z,64.70
2018-02-11T16:45:23.401Z,65.40
2018-02-11T16:47:51.353Z,65.80
2018-02-11T16:50:19.292Z,66.30
2018-02-11T16:52:47.166Z,66.60
2018-02-11T16:55:15.057Z,66.90
2018-02-11T16:57:43.047Z,66.90
2018-02-11T17:00:10.896Z,67.70
2018-02-11T17:02:38.765Z,68.20
2018-02-11T17:05:06.706Z,68.70
2018-02-11T17:07:34.470Z,69.80
2018-02-11T17:10:02.267Z,69.30
2018-02-11T17:12:30.141Z,69.30
2018-02-11T17:14:58.053Z,69.50
2018-02-11T17:17:25.948Z,70.40
2018-02-11T17:19:53.748Z,71.30
2018-02-11T17:22:21.587Z,71.00
2018-02-11T17:24:49.483Z,71.30
2018-02-11T17:27:17.268Z,71.60
2018-02-11T17:29:45.929Z,71.70
2018-02-11T17:32:13.936Z,71.70
2018-02-11T17:34:41.852Z,73.10
2018-02-11T17:37:09.716Z,72.30
2018-02-11T17:39:37.594Z,72.30
2018-02-11T17:42:05.407Z,72.30
2018-02-11T17:44:33.282Z,72.80
2018-02-11T17:47:01.311Z,73.30
2018-02-11T17:49:29.944Z,74.10
2018-02-11T17:51:57.811Z,74.10
2018-02-11T17:54:25.715Z,74.20
2018-02-11T17:56:53.531Z,74.20
2018-02-11T17:59:21.560Z,74.80
2018-02-11T18:01:49.583Z,75.50
2018-02-11T18:04:17.407Z,76.30
2018-02-11T18:06:46.096Z,77.20
2018-02-11T18:09:14.669Z,78.40
2018-02-11T18:11:42.479Z,78.40
2018-02-11T18:14:14.401Z,78.20
2018-02-11T18:16:48.146Z,78.70
2018-02-11T18:19:16.135Z,78.40
2018-02-11T18:21:43.904Z,78.40
2018-02-11T18:24:11.700Z,78.20
2018-02-11T18:26:39.581Z,78.30
2018-02-11T18:29:08.155Z,77.40
2018-02-11T18:31:36.001Z,77.70
2018-02-11T18:34:04.154Z,77.80
2018-02-11T18:36:31.960Z,78.10
2018-02-11T18:38:59.881Z,78.50
2018-02-11T18:41:27.921Z,78.40
2018-02-11T18:43:56.568Z,78.50
2018-02-11T18:46:24.616Z,78.50
2018-02-11T18:48:52.469Z,79.20
2018-02-11T18:51:20.319Z,79.20
2018-02-11T18:53:48.183Z,79.00
2018-02-11T18:56:16.803Z,79.60
2018-02-11T18:58:44.679Z,79.50
2018-02-11T19:01:13.237Z,80.60
2018-02-11T19:03:41.137Z,80.70
2018-02-11T19:06:09.087Z,82.00
2018-02-11T19:08:37.301Z,82.70
2018-02-11T19:11:06.235Z,83.20
2018-02-11T19:13:34.244Z,83.20
2018-02-11T19:16:02.108Z,83.30
2018-02-11T19:18:30.304Z,83.60
2018-02-11T19:21:03.498Z,84.30
2018-02-11T19:23:31.656Z,84.60
2018-02-11T19:25:59.708Z,84.50
2018-02-11T19:28:27.710Z,84.90
2018-02-11T19:30:55.961Z,84.70
2018-02-11T19:33:24.370Z,84.70
2018-02-11T19:35:54.659Z,84.30
2018-02-11T19:38:22.942Z,84.10
2018-02-11T19:40:51.028Z,84.60
2018-02-11T19:43:19.111Z,84.80
2018-02-11T19:45:47.516Z,85.30
2018-02-11T19:48:16.317Z,87.20
2018-02-11T19:50:45.289Z,87.80
2018-02-11T19:53:14.061Z,88.50
2018-02-11T19:55:42.028Z,88.30
2018-02-11T19:58:10.233Z,88.10
2018-02-11T20:00:39.289Z,89.40
2018-02-11T20:03:07.475Z,89.40
2018-02-11T20:05:36.157Z,89.40
2018-02-11T20:08:04.232Z,89.30
2018-02-11T20:10:33.019Z,88.60
2018-02-11T20:13:01.206Z,88.20
2018-02-11T20:15:29.571Z,88.20
2018-02-11T20:17:57.706Z,88.40
2018-02-11T20:20:25.647Z,87.90
2018-02-11T20:22:54.605Z,87.80
2018-02-11T20:25:22.487Z,87.80
2018-02-11T20:27:50.749Z,88.10
2018-02-11T20:30:19.012Z,89.00
2018-02-11T20:32:47.059Z,89.10
2018-02-11T20:35:14.938Z,89.00
2018-02-11T20:37:42.935Z,88.50
2018-02-11T20:40:10.865Z,88.70
2018-02-11T20:42:38.995Z,88.80
2018-02-11T20:45:08.029Z,89.40
2018-02-11T20:47:35.998Z,89.30
2018-02-11T20:50:03.907Z,89.60
2018-02-11T20:52:31.885Z,89.90
2018-02-11T20:55:00.152Z,90.00
2018-02-11T20:57:28.216Z,90.10
2018-02-11T20:59:56.520Z,89.70
2018-02-11T21:02:25.349Z,89.90
2018-02-11T21:04:53.214Z,89.00
2018-02-11T21:07:21.445Z,89.10
2018-02-11T21:09:49.780Z,89.10
2018-02-11T21:12:17.575Z,89.40
2018-02-11T21:14:45.738Z,89.40
2018-02-11T21:17:13.634Z,89.80
2018-02-11T21:19:42.405Z,90.40
2018-02-11T21:22:10.414Z,90.30
2018-02-11T21:24:38.648Z,90.60
2018-02-11T21:27:06.525Z,90.60
2018-02-11T21:29:34.586Z,90.50
2018-02-11T21:32:02.523Z,90.60
2018-02-11T21:34:30.722Z,90.70
2018-02-11T21:36:59.042Z,91.00
2018-02-11T21:39:27.078Z,91.00
2018-02-11T21:41:55.163Z,91.00
2018-02-11T21:44:23.058Z,90.90
2018-02-11T21:46:50.943Z,90.80
2018-02-11T21:49:18.936Z,91.00
2018-02-11T21:51:47.132Z,90.80
2018-02-11T21:54:15.304Z,91.10
2018-02-11T21:56:43.356Z,91.30
2018-02-11T21:59:11.504Z,91.50
2018-02-11T22:01:39.722Z,91.50
2018-02-11T22:04:07.594Z,91.60
2018-02-11T22:06:35.624Z,91.70
2018-02-11T22:09:03.733Z,92.10
2018-02-11T22:11:31.804Z,92.50
2018-02-11T22:13:59.880Z,92.70
2018-02-11T22:16:27.743Z,92.60
2018-02-11T22:18:55.708Z,93.00
2018-02-11T22:21:23.655Z,93.20
2018-02-11T22:23:51.980Z,93.30
2018-02-11T22:26:20.131Z,93.70
2018-02-11T22:28:48.312Z,94.10
2018-02-11T22:31:16.332Z,94.30
2018-02-11T22:33:44.448Z,94.50
2018-02-11T22:36:12.522Z,94.70
2018-02-11T22:38:40.468Z,94.80
2018-02-11T22:41:08.358Z,94.80
2018-02-11T22:43:36.548Z,94.50
2018-02-11T22:46:04.363Z,94.40
2018-02-11T22:48:32.264Z,94.40
2018-02-11T22:51:00.337Z,94.50
2018-02-11T22:53:28.510Z,94.60
2018-02-11T22:55:56.489Z,94.80
2018-02-11T22:58:24.516Z,95.00
2018-02-11T23:00:52.531Z,95.00
2018-02-11T23:03:20.490Z,95.00
2018-02-11T23:05:48.516Z,94.90
2018-02-11T23:08:16.325Z,94.90
2018-02-11T23:10:44.616Z,94.80
2018-02-11T23:13:12.980Z,94.80
2018-02-11T23:15:41.028Z,94.80
2018-02-11T23:18:09.225Z,94.60
2018-02-11T23:20:37.402Z,94.40
2018-02-11T23:23:05.432Z,94.20
2018-02-11T23:25:33.440Z,94.10
2018-02-11T23:28:01.410Z,94.10
2018-02-11T23:30:29.380Z,93.90
2018-02-11T23:32:57.205Z,93.80
2018-02-11T23:35:25.304Z,93.60
2018-02-11T23:37:53.185Z,93.70
2018-02-11T23:40:21.256Z,93.70
2018-02-11T23:42:49.372Z,93.90
2018-02-11T23:45:18.322Z,94.00
2018-02-11T23:47:46.470Z,94.00
2018-02-11T23:50:14.473Z,93.90
2018-02-11T23:52:42.388Z,93.90
2018-02-11T23:55:10.607Z,93.90
2018-02-11T23:57:38.679Z,94.00
